Airfield :
LOGIN :

Register | Disclaimer

   EN    FR    IT 

 










Legend :    VFR   Marginal VFR   IFR   Intensive IFR   Very Intensive IFR
Visi :
Ceiling :
>= 8 km
>= 3000ft
5 to 8 km
1000 to 3000 ft
1500m to 5 km
500 to 1000 ft
800 to 1500m
200 to 500 ft
< 800m
< 200 ft
Symbols :   Thunderstorms  Fog  Heavy snow  Heavy precipitations  Wind > 20 kt
SIGMETs :     Misc.  Thunderstorms  Icing  Turbulence  Mountain Waves  Volcanic Ashes







- Airport Elevation : 935 ft


EBFS - Florennes

CURRENT METAR :
  • 172025Z 28012KT 3000 SCT004 BKN012TCU BKN015 00/M01 Q1014 YLO YLO TEMPO AMB

EXPIRED METARs :
  • 172007Z 28013KT 6000 -SHSN SCT004 BKN012TCU BKN015 00/M01 Q1013 YLO YLO TEMPO AMB
  • 171955Z 28012KT 9999 SCT004 BKN012TCU BKN015 00/M01 Q1013 YLO YLO TEMPO AMB
  • 171925Z 28013KT 7000 SCT004 BKN012TCU BKN015 00/M01 Q1013 YLO YLO TEMPO AMB
  • 171855Z 28017KT 7000 SCT004 BKN012TCU BKN015 00/M01 Q1012 YLO YLO TEMPO AMB
  • 171833Z 28015KT 3000 SHSN SCT007 BKN012TCU BKN015 00/M01 Q1012 YLO YLO TEMPO AMB
  • 171818Z 28015KT 2000 SHSN SCT009 BKN012TCU BKN015 00/M02 Q1011 YLO YLO TEMPO AMB
  • 171814Z 27015KT 4000 -SHRASN SCT012 BKN020 BKN030 01/M02 Q1011 GRN YLO TEMPO AMB
  • 171803Z 28015KT 9999 SCT020 BKN030 01/M02 Q1011 WHT BLU TEMPO YLO

TAF TAF EBFS
Valid from the 17 at 19:00 until the 18 at 07:00 UTC


171541Z 1719/1807 30015KT 8000 SCT007 BKN012TCU
TEMPO 1719/1800 30015G25KT 2000 -SHRASN SCT005 BKN008TCU
PROB30
TEMPO 1719/1800 1000 -SN BKN002 BKN004
BECMG 1801/1802 26010KT 3000 BKN003 BKN005
BECMG 1802/1804 400 FZFG BKN001 BKN003
No reported NOTAMs for that airfield.



MET'MAP, your aeronautical weather chart ! - Copyright ORBIFLY December 2007 - Disclaimer

ORBIFLY MET'MAP TEAM :

Programming & Development : Alexandra Zaïnal
Concept & Development : Baudouin d'Aumeries
Co-Development & Prog : Marc-Olivier Méhu
Technical & hardware support : Manuel Goepfert

Contact : metmap@orbifly.com




SOURCES & CREDITS :

   NOAA